sensor_id;sensor_type;location;lat;lon;timestamp;P1;durP1;ratioP1;P2;durP2;ratioP2
65461;SDS011;53236;43.666;18.444;2023-05-10T00:02:09;12.70;;;9.30;;
65461;SDS011;53236;43.666;18.444;2023-05-10T00:04:35;14.83;;;9.30;;
65461;SDS011;53236;43.666;18.444;2023-05-10T00:07:00;12.33;;;9.70;;
65461;SDS011;53236;43.666;18.444;2023-05-10T00:09:26;11.93;;;9.20;;
65461;SDS011;53236;43.666;18.444;2023-05-10T00:11:52;14.60;;;9.93;;
65461;SDS011;53236;43.666;18.444;2023-05-10T00:14:18;14.37;;;9.70;;
65461;SDS011;53236;43.666;18.444;2023-05-10T00:16:44;13.27;;;9.53;;
65461;SDS011;53236;43.666;18.444;2023-05-10T00:19:10;10.13;;;8.20;;
65461;SDS011;53236;43.666;18.444;2023-05-10T00:21:35;12.37;;;8.60;;
65461;SDS011;53236;43.666;18.444;2023-05-10T00:24:01;12.30;;;7.10;;
65461;SDS011;53236;43.666;18.444;2023-05-10T00:26:27;9.27;;;6.67;;
65461;SDS011;53236;43.666;18.444;2023-05-10T00:28:53;9.93;;;7.30;;
65461;SDS011;53236;43.666;18.444;2023-05-10T00:31:19;11.93;;;7.33;;
65461;SDS011;53236;43.666;18.444;2023-05-10T00:33:44;12.57;;;8.40;;
65461;SDS011;53236;43.666;18.444;2023-05-10T00:36:10;10.43;;;8.40;;
65461;SDS011;53236;43.666;18.444;2023-05-10T00:38:36;14.47;;;8.93;;
65461;SDS011;53236;43.666;18.444;2023-05-10T00:41:03;8.43;;;7.50;;
65461;SDS011;53236;43.666;18.444;2023-05-10T00:43:29;11.30;;;8.43;;
65461;SDS011;53236;43.666;18.444;2023-05-10T00:45:54;10.63;;;7.43;;
65461;SDS011;53236;43.666;18.444;2023-05-10T00:48:20;10.23;;;8.20;;
65461;SDS011;53236;43.666;18.444;2023-05-10T00:50:47;10.47;;;7.53;;
65461;SDS011;53236;43.666;18.444;2023-05-10T00:53:13;10.73;;;7.97;;
65461;SDS011;53236;43.666;18.444;2023-05-10T00:55:40;11.60;;;7.90;;
65461;SDS011;53236;43.666;18.444;2023-05-10T00:58:06;30.23;;;9.20;;
65461;SDS011;53236;43.666;18.444;2023-05-10T01:00:33;11.00;;;7.83;;
65461;SDS011;53236;43.666;18.444;2023-05-10T01:02:59;11.30;;;7.83;;
65461;SDS011;53236;43.666;18.444;2023-05-10T01:05:26;10.53;;;7.47;;
65461;SDS011;53236;43.666;18.444;2023-05-10T01:07:52;11.43;;;7.60;;
65461;SDS011;53236;43.666;18.444;2023-05-10T01:10:18;9.90;;;7.43;;
65461;SDS011;53236;43.666;18.444;2023-05-10T01:12:45;9.70;;;8.03;;
65461;SDS011;53236;43.666;18.444;2023-05-10T01:15:12;12.97;;;8.17;;
65461;SDS011;53236;43.666;18.444;2023-05-10T01:17:40;10.27;;;8.00;;
65461;SDS011;53236;43.666;18.444;2023-05-10T01:20:07;9.90;;;7.60;;
65461;SDS011;53236;43.666;18.444;2023-05-10T01:28:50;8.77;;;6.93;;
65461;SDS011;53236;43.666;18.444;2023-05-10T01:34:06;8.17;;;6.70;;
65461;SDS011;53236;43.666;18.444;2023-05-10T01:36:48;10.70;;;7.67;;
65461;SDS011;53236;43.666;18.444;2023-05-10T01:39:24;10.18;;;7.15;;
65461;SDS011;53236;43.666;18.444;2023-05-10T01:42:03;9.93;;;7.97;;
65461;SDS011;53236;43.666;18.444;2023-05-10T01:52:38;9.47;;;6.97;;
65461;SDS011;53236;43.666;18.444;2023-05-10T01:55:08;11.13;;;7.23;;
65461;SDS011;53236;43.666;18.444;2023-05-10T01:57:37;9.47;;;6.77;;
65461;SDS011;53236;43.666;18.444;2023-05-10T02:00:05;11.27;;;7.77;;
65461;SDS011;53236;43.666;18.444;2023-05-10T02:02:33;13.03;;;8.20;;
65461;SDS011;53236;43.666;18.444;2023-05-10T02:05:02;10.77;;;8.20;;
65461;SDS011;53236;43.666;18.444;2023-05-10T02:07:30;10.10;;;7.37;;
65461;SDS011;53236;43.666;18.444;2023-05-10T02:09:59;9.47;;;7.33;;
65461;SDS011;53236;43.666;18.444;2023-05-10T02:12:26;10.40;;;7.30;;
65461;SDS011;53236;43.666;18.444;2023-05-10T02:14:55;10.00;;;7.17;;
65461;SDS011;53236;43.666;18.444;2023-05-10T02:17:22;8.63;;;7.23;;
65461;SDS011;53236;43.666;18.444;2023-05-10T02:19:50;14.87;;;7.37;;
65461;SDS011;53236;43.666;18.444;2023-05-10T02:22:18;10.90;;;7.60;;
65461;SDS011;53236;43.666;18.444;2023-05-10T02:24:45;8.57;;;6.80;;
65461;SDS011;53236;43.666;18.444;2023-05-10T02:27:11;8.80;;;7.17;;
65461;SDS011;53236;43.666;18.444;2023-05-10T02:29:39;9.13;;;7.03;;
65461;SDS011;53236;43.666;18.444;2023-05-10T02:32:06;9.50;;;7.07;;
65461;SDS011;53236;43.666;18.444;2023-05-10T02:34:32;13.87;;;7.43;;
65461;SDS011;53236;43.666;18.444;2023-05-10T02:36:58;9.30;;;7.20;;
65461;SDS011;53236;43.666;18.444;2023-05-10T02:39:25;10.27;;;7.30;;
65461;SDS011;53236;43.666;18.444;2023-05-10T02:41:53;9.63;;;7.77;;
65461;SDS011;53236;43.666;18.444;2023-05-10T02:44:20;10.07;;;7.70;;
65461;SDS011;53236;43.666;18.444;2023-05-10T02:46:48;8.57;;;7.07;;
65461;SDS011;53236;43.666;18.444;2023-05-10T02:49:14;11.97;;;7.43;;
65461;SDS011;53236;43.666;18.444;2023-05-10T02:51:41;9.23;;;6.90;;
65461;SDS011;53236;43.666;18.444;2023-05-10T02:54:15;9.07;;;7.10;;
65461;SDS011;53236;43.666;18.444;2023-05-10T02:56:50;8.80;;;7.00;;
65461;SDS011;53236;43.666;18.444;2023-05-10T02:59:18;10.73;;;8.03;;
65461;SDS011;53236;43.666;18.444;2023-05-10T03:01:44;10.57;;;7.50;;
65461;SDS011;53236;43.666;18.444;2023-05-10T03:04:10;10.33;;;7.03;;
65461;SDS011;53236;43.666;18.444;2023-05-10T03:06:36;11.77;;;7.33;;
65461;SDS011;53236;43.666;18.444;2023-05-10T03:09:02;9.47;;;6.97;;
65461;SDS011;53236;43.666;18.444;2023-05-10T03:14:10;9.87;;;7.53;;
65461;SDS011;53236;43.666;18.444;2023-05-10T03:16:52;11.57;;;7.60;;
65461;SDS011;53236;43.666;18.444;2023-05-10T03:19:54;10.07;;;7.60;;
65461;SDS011;53236;43.666;18.444;2023-05-10T03:22:25;11.97;;;7.87;;
65461;SDS011;53236;43.666;18.444;2023-05-10T03:25:18;11.63;;;7.45;;
65461;SDS011;53236;43.666;18.444;2023-05-10T03:27:47;11.50;;;7.80;;
65461;SDS011;53236;43.666;18.444;2023-05-10T03:30:13;10.57;;;7.97;;
65461;SDS011;53236;43.666;18.444;2023-05-10T03:32:40;9.20;;;7.90;;
65461;SDS011;53236;43.666;18.444;2023-05-10T03:35:10;10.90;;;8.47;;
65461;SDS011;53236;43.666;18.444;2023-05-10T03:37:37;10.20;;;7.40;;
65461;SDS011;53236;43.666;18.444;2023-05-10T03:40:03;10.17;;;7.77;;
65461;SDS011;53236;43.666;18.444;2023-05-10T03:42:30;10.13;;;8.07;;
65461;SDS011;53236;43.666;18.444;2023-05-10T03:44:55;9.43;;;7.87;;
65461;SDS011;53236;43.666;18.444;2023-05-10T03:47:21;11.07;;;8.13;;
65461;SDS011;53236;43.666;18.444;2023-05-10T03:49:47;9.67;;;7.80;;
65461;SDS011;53236;43.666;18.444;2023-05-10T03:52:13;14.43;;;8.70;;
65461;SDS011;53236;43.666;18.444;2023-05-10T03:54:38;9.93;;;7.83;;
65461;SDS011;53236;43.666;18.444;2023-05-10T03:57:04;11.43;;;7.23;;
65461;SDS011;53236;43.666;18.444;2023-05-10T03:59:30;10.57;;;8.13;;
65461;SDS011;53236;43.666;18.444;2023-05-10T04:01:56;11.17;;;7.60;;
65461;SDS011;53236;43.666;18.444;2023-05-10T04:04:22;10.77;;;8.07;;
65461;SDS011;53236;43.666;18.444;2023-05-10T04:06:48;9.03;;;7.17;;
65461;SDS011;53236;43.666;18.444;2023-05-10T04:09:14;12.43;;;7.30;;
65461;SDS011;53236;43.666;18.444;2023-05-10T04:11:41;12.20;;;7.63;;
65461;SDS011;53236;43.666;18.444;2023-05-10T04:14:07;11.47;;;7.10;;
65461;SDS011;53236;43.666;18.444;2023-05-10T04:16:33;12.07;;;7.20;;
65461;SDS011;53236;43.666;18.444;2023-05-10T04:18:58;13.93;;;8.17;;
65461;SDS011;53236;43.666;18.444;2023-05-10T04:21:24;10.30;;;7.73;;
65461;SDS011;53236;43.666;18.444;2023-05-10T04:23:50;10.57;;;7.33;;
65461;SDS011;53236;43.666;18.444;2023-05-10T04:26:16;12.27;;;8.33;;
65461;SDS011;53236;43.666;18.444;2023-05-10T04:28:42;12.17;;;8.70;;
65461;SDS011;53236;43.666;18.444;2023-05-10T04:31:08;14.60;;;9.10;;
65461;SDS011;53236;43.666;18.444;2023-05-10T04:33:35;14.23;;;9.80;;
65461;SDS011;53236;43.666;18.444;2023-05-10T04:36:01;10.97;;;8.80;;
65461;SDS011;53236;43.666;18.444;2023-05-10T04:38:27;11.80;;;8.63;;
65461;SDS011;53236;43.666;18.444;2023-05-10T04:40:53;10.37;;;8.77;;
65461;SDS011;53236;43.666;18.444;2023-05-10T04:43:19;24.50;;;18.33;;
65461;SDS011;53236;43.666;18.444;2023-05-10T04:45:45;14.90;;;10.77;;
65461;SDS011;53236;43.666;18.444;2023-05-10T04:48:11;11.13;;;8.60;;
65461;SDS011;53236;43.666;18.444;2023-05-10T04:50:37;10.00;;;8.10;;
65461;SDS011;53236;43.666;18.444;2023-05-10T04:53:04;16.80;;;10.17;;
65461;SDS011;53236;43.666;18.444;2023-05-10T04:55:30;21.43;;;15.33;;
65461;SDS011;53236;43.666;18.444;2023-05-10T04:57:55;15.53;;;9.97;;
65461;SDS011;53236;43.666;18.444;2023-05-10T05:00:22;14.43;;;9.30;;
65461;SDS011;53236;43.666;18.444;2023-05-10T05:02:48;11.57;;;7.90;;
65461;SDS011;53236;43.666;18.444;2023-05-10T05:05:14;10.97;;;8.17;;
65461;SDS011;53236;43.666;18.444;2023-05-10T05:07:40;11.00;;;8.87;;
65461;SDS011;53236;43.666;18.444;2023-05-10T05:10:06;10.57;;;7.60;;
65461;SDS011;53236;43.666;18.444;2023-05-10T05:12:34;29.37;;;14.47;;
65461;SDS011;53236;43.666;18.444;2023-05-10T05:15:00;44.63;;;21.73;;
65461;SDS011;53236;43.666;18.444;2023-05-10T05:17:26;27.77;;;15.90;;
65461;SDS011;53236;43.666;18.444;2023-05-10T05:19:52;12.33;;;9.03;;
65461;SDS011;53236;43.666;18.444;2023-05-10T05:22:18;13.43;;;9.10;;
65461;SDS011;53236;43.666;18.444;2023-05-10T05:24:52;12.00;;;8.43;;
65461;SDS011;53236;43.666;18.444;2023-05-10T05:27:22;9.63;;;7.30;;
65461;SDS011;53236;43.666;18.444;2023-05-10T05:29:50;12.17;;;8.07;;
65461;SDS011;53236;43.666;18.444;2023-05-10T05:32:17;11.37;;;8.40;;
65461;SDS011;53236;43.666;18.444;2023-05-10T05:34:46;13.73;;;7.97;;
65461;SDS011;53236;43.666;18.444;2023-05-10T05:37:14;10.10;;;7.73;;
65461;SDS011;53236;43.666;18.444;2023-05-10T05:39:41;11.37;;;7.60;;
65461;SDS011;53236;43.666;18.444;2023-05-10T05:42:08;11.50;;;8.27;;
65461;SDS011;53236;43.666;18.444;2023-05-10T05:44:34;13.33;;;9.67;;
65461;SDS011;53236;43.666;18.444;2023-05-10T05:47:00;12.00;;;8.40;;
65461;SDS011;53236;43.666;18.444;2023-05-10T05:49:27;12.40;;;9.83;;
65461;SDS011;53236;43.666;18.444;2023-05-10T05:51:52;15.03;;;9.63;;
65461;SDS011;53236;43.666;18.444;2023-05-10T05:54:18;21.10;;;9.23;;
65461;SDS011;53236;43.666;18.444;2023-05-10T05:56:44;13.80;;;8.87;;
65461;SDS011;53236;43.666;18.444;2023-05-10T05:59:10;12.40;;;9.40;;
65461;SDS011;53236;43.666;18.444;2023-05-10T06:01:36;12.30;;;8.37;;
65461;SDS011;53236;43.666;18.444;2023-05-10T06:04:02;13.37;;;8.80;;
65461;SDS011;53236;43.666;18.444;2023-05-10T06:06:28;15.83;;;8.30;;
65461;SDS011;53236;43.666;18.444;2023-05-10T06:08:54;9.77;;;7.47;;
65461;SDS011;53236;43.666;18.444;2023-05-10T06:11:20;10.47;;;6.80;;
65461;SDS011;53236;43.666;18.444;2023-05-10T06:13:48;19.73;;;9.30;;
65461;SDS011;53236;43.666;18.444;2023-05-10T06:16:15;28.47;;;13.83;;
65461;SDS011;53236;43.666;18.444;2023-05-10T06:18:41;12.40;;;7.50;;
65461;SDS011;53236;43.666;18.444;2023-05-10T06:21:07;17.33;;;9.23;;
65461;SDS011;53236;43.666;18.444;2023-05-10T06:23:33;12.88;;;6.72;;
65461;SDS011;53236;43.666;18.444;2023-05-10T06:25:58;11.15;;;7.03;;
65461;SDS011;53236;43.666;18.444;2023-05-10T06:28:24;8.35;;;5.90;;
65461;SDS011;53236;43.666;18.444;2023-05-10T06:30:51;9.80;;;6.30;;
65461;SDS011;53236;43.666;18.444;2023-05-10T06:33:16;8.77;;;7.00;;
65461;SDS011;53236;43.666;18.444;2023-05-10T06:35:42;8.10;;;4.75;;
65461;SDS011;53236;43.666;18.444;2023-05-10T06:38:08;8.05;;;4.00;;
65461;SDS011;53236;43.666;18.444;2023-05-10T06:40:34;8.65;;;4.28;;
65461;SDS011;53236;43.666;18.444;2023-05-10T06:43:01;5.75;;;4.15;;
65461;SDS011;53236;43.666;18.444;2023-05-10T06:45:26;6.47;;;3.97;;
65461;SDS011;53236;43.666;18.444;2023-05-10T06:47:52;4.97;;;4.10;;
65461;SDS011;53236;43.666;18.444;2023-05-10T06:50:18;5.22;;;3.45;;
65461;SDS011;53236;43.666;18.444;2023-05-10T06:52:44;9.32;;;5.55;;
65461;SDS011;53236;43.666;18.444;2023-05-10T06:55:10;6.80;;;4.45;;
65461;SDS011;53236;43.666;18.444;2023-05-10T06:57:36;7.32;;;4.20;;
65461;SDS011;53236;43.666;18.444;2023-05-10T07:00:02;6.70;;;3.80;;
65461;SDS011;53236;43.666;18.444;2023-05-10T07:02:31;9.23;;;3.97;;
65461;SDS011;53236;43.666;18.444;2023-05-10T07:04:57;7.95;;;3.92;;
65461;SDS011;53236;43.666;18.444;2023-05-10T07:07:23;5.50;;;4.07;;
65461;SDS011;53236;43.666;18.444;2023-05-10T07:09:49;5.70;;;4.32;;
65461;SDS011;53236;43.666;18.444;2023-05-10T07:12:16;7.80;;;4.13;;
65461;SDS011;53236;43.666;18.444;2023-05-10T07:14:42;8.98;;;3.90;;
65461;SDS011;53236;43.666;18.444;2023-05-10T07:17:07;7.70;;;4.22;;
65461;SDS011;53236;43.666;18.444;2023-05-10T07:19:33;7.60;;;4.00;;
65461;SDS011;53236;43.666;18.444;2023-05-10T07:21:59;4.97;;;3.67;;
65461;SDS011;53236;43.666;18.444;2023-05-10T07:24:25;6.65;;;3.88;;
65461;SDS011;53236;43.666;18.444;2023-05-10T07:26:50;5.53;;;3.85;;
65461;SDS011;53236;43.666;18.444;2023-05-10T07:29:16;7.65;;;3.70;;
65461;SDS011;53236;43.666;18.444;2023-05-10T07:31:42;7.40;;;4.03;;
65461;SDS011;53236;43.666;18.444;2023-05-10T07:34:08;5.85;;;3.03;;
65461;SDS011;53236;43.666;18.444;2023-05-10T07:36:34;6.13;;;3.70;;
65461;SDS011;53236;43.666;18.444;2023-05-10T07:39:00;6.65;;;3.72;;
65461;SDS011;53236;43.666;18.444;2023-05-10T07:41:27;4.38;;;3.38;;
65461;SDS011;53236;43.666;18.444;2023-05-10T07:43:53;7.13;;;3.55;;
65461;SDS011;53236;43.666;18.444;2023-05-10T07:46:18;7.38;;;3.97;;
65461;SDS011;53236;43.666;18.444;2023-05-10T07:48:44;6.57;;;3.85;;
65461;SDS011;53236;43.666;18.444;2023-05-10T07:51:10;6.32;;;3.95;;
65461;SDS011;53236;43.666;18.444;2023-05-10T07:53:37;5.35;;;3.50;;
65461;SDS011;53236;43.666;18.444;2023-05-10T07:58:52;5.60;;;4.53;;
65461;SDS011;53236;43.666;18.444;2023-05-10T08:01:19;5.97;;;4.10;;
65461;SDS011;53236;43.666;18.444;2023-05-10T08:03:45;6.15;;;4.30;;
65461;SDS011;53236;43.666;18.444;2023-05-10T08:06:11;9.15;;;4.13;;
65461;SDS011;53236;43.666;18.444;2023-05-10T08:08:37;6.57;;;4.07;;
65461;SDS011;53236;43.666;18.444;2023-05-10T08:11:03;8.07;;;4.32;;
65461;SDS011;53236;43.666;18.444;2023-05-10T08:13:29;6.50;;;3.90;;
65461;SDS011;53236;43.666;18.444;2023-05-10T08:15:56;5.70;;;4.10;;
65461;SDS011;53236;43.666;18.444;2023-05-10T08:18:22;6.55;;;4.18;;
65461;SDS011;53236;43.666;18.444;2023-05-10T08:20:48;6.43;;;4.85;;
65461;SDS011;53236;43.666;18.444;2023-05-10T08:23:13;10.18;;;5.07;;
65461;SDS011;53236;43.666;18.444;2023-05-10T08:25:39;8.15;;;4.93;;
65461;SDS011;53236;43.666;18.444;2023-05-10T08:28:05;7.65;;;4.40;;
65461;SDS011;53236;43.666;18.444;2023-05-10T08:30:31;6.53;;;4.72;;
65461;SDS011;53236;43.666;18.444;2023-05-10T08:32:57;6.65;;;4.50;;
65461;SDS011;53236;43.666;18.444;2023-05-10T08:35:22;8.13;;;5.05;;
65461;SDS011;53236;43.666;18.444;2023-05-10T08:37:49;7.95;;;5.55;;
65461;SDS011;53236;43.666;18.444;2023-05-10T08:40:15;7.20;;;4.70;;
65461;SDS011;53236;43.666;18.444;2023-05-10T08:42:47;6.38;;;4.55;;
65461;SDS011;53236;43.666;18.444;2023-05-10T08:45:21;8.43;;;5.47;;
65461;SDS011;53236;43.666;18.444;2023-05-10T08:47:50;8.35;;;5.00;;
65461;SDS011;53236;43.666;18.444;2023-05-10T08:50:18;7.28;;;5.10;;
65461;SDS011;53236;43.666;18.444;2023-05-10T08:52:46;9.63;;;5.20;;
65461;SDS011;53236;43.666;18.444;2023-05-10T08:55:15;10.40;;;5.63;;
65461;SDS011;53236;43.666;18.444;2023-05-10T08:57:41;7.25;;;5.43;;
65461;SDS011;53236;43.666;18.444;2023-05-10T09:00:07;7.05;;;4.70;;
65461;SDS011;53236;43.666;18.444;2023-05-10T09:02:34;7.18;;;4.82;;
65461;SDS011;53236;43.666;18.444;2023-05-10T09:05:02;7.03;;;5.30;;
65461;SDS011;53236;43.666;18.444;2023-05-10T09:07:29;8.88;;;5.55;;
65461;SDS011;53236;43.666;18.444;2023-05-10T09:09:55;8.10;;;5.70;;
65461;SDS011;53236;43.666;18.444;2023-05-10T09:12:23;7.30;;;5.10;;
65461;SDS011;53236;43.666;18.444;2023-05-10T09:14:49;8.37;;;5.90;;
65461;SDS011;53236;43.666;18.444;2023-05-10T09:17:17;7.25;;;5.47;;
65461;SDS011;53236;43.666;18.444;2023-05-10T09:19:44;9.43;;;5.55;;
65461;SDS011;53236;43.666;18.444;2023-05-10T09:22:10;6.53;;;4.93;;
65461;SDS011;53236;43.666;18.444;2023-05-10T09:24:36;7.18;;;4.50;;
65461;SDS011;53236;43.666;18.444;2023-05-10T09:27:07;9.32;;;5.90;;
65461;SDS011;53236;43.666;18.444;2023-05-10T09:29:39;6.60;;;3.77;;
65461;SDS011;53236;43.666;18.444;2023-05-10T09:32:06;7.90;;;4.20;;
65461;SDS011;53236;43.666;18.444;2023-05-10T09:34:32;7.63;;;4.90;;
65461;SDS011;53236;43.666;18.444;2023-05-10T09:37:01;4.80;;;3.80;;
65461;SDS011;53236;43.666;18.444;2023-05-10T09:39:31;6.10;;;4.30;;
65461;SDS011;53236;43.666;18.444;2023-05-10T09:42:05;5.53;;;4.03;;
65461;SDS011;53236;43.666;18.444;2023-05-10T09:44:33;5.30;;;3.73;;
65461;SDS011;53236;43.666;18.444;2023-05-10T09:46:59;8.57;;;4.03;;
65461;SDS011;53236;43.666;18.444;2023-05-10T09:49:26;5.77;;;3.67;;
65461;SDS011;53236;43.666;18.444;2023-05-10T09:52:26;5.47;;;4.13;;
65461;SDS011;53236;43.666;18.444;2023-05-10T09:54:45;6.77;;;4.70;;
65461;SDS011;53236;43.666;18.444;2023-05-10T09:57:20;5.18;;;3.47;;
65461;SDS011;53236;43.666;18.444;2023-05-10T09:59:46;4.63;;;3.83;;
65461;SDS011;53236;43.666;18.444;2023-05-10T10:02:13;5.93;;;4.07;;
65461;SDS011;53236;43.666;18.444;2023-05-10T10:04:39;7.67;;;4.50;;
65461;SDS011;53236;43.666;18.444;2023-05-10T10:07:05;6.47;;;3.70;;
65461;SDS011;53236;43.666;18.444;2023-05-10T10:09:32;6.00;;;4.30;;
65461;SDS011;53236;43.666;18.444;2023-05-10T10:11:59;6.17;;;4.43;;
65461;SDS011;53236;43.666;18.444;2023-05-10T10:14:29;5.40;;;4.07;;
65461;SDS011;53236;43.666;18.444;2023-05-10T10:16:55;7.57;;;4.50;;
65461;SDS011;53236;43.666;18.444;2023-05-10T10:19:21;11.35;;;7.18;;
65461;SDS011;53236;43.666;18.444;2023-05-10T10:21:47;6.60;;;4.70;;
65461;SDS011;53236;43.666;18.444;2023-05-10T10:24:14;5.93;;;4.40;;
65461;SDS011;53236;43.666;18.444;2023-05-10T10:26:40;6.43;;;4.37;;
65461;SDS011;53236;43.666;18.444;2023-05-10T10:31:53;7.37;;;4.10;;
65461;SDS011;53236;43.666;18.444;2023-05-10T10:34:41;7.93;;;4.80;;
65461;SDS011;53236;43.666;18.444;2023-05-10T10:37:07;8.00;;;4.17;;
65461;SDS011;53236;43.666;18.444;2023-05-10T10:39:33;5.67;;;4.03;;
65461;SDS011;53236;43.666;18.444;2023-05-10T10:42:01;6.00;;;4.57;;
65461;SDS011;53236;43.666;18.444;2023-05-10T10:55:19;7.03;;;3.45;;
65461;SDS011;53236;43.666;18.444;2023-05-10T10:57:52;6.45;;;4.30;;
65461;SDS011;53236;43.666;18.444;2023-05-10T11:00:28;5.80;;;4.07;;
65461;SDS011;53236;43.666;18.444;2023-05-10T11:07:59;4.45;;;3.33;;
65461;SDS011;53236;43.666;18.444;2023-05-10T11:10:26;5.28;;;3.60;;
65461;SDS011;53236;43.666;18.444;2023-05-10T11:13:01;5.32;;;3.45;;
65461;SDS011;53236;43.666;18.444;2023-05-10T11:15:32;4.45;;;2.88;;
65461;SDS011;53236;43.666;18.444;2023-05-10T11:18:00;4.28;;;3.05;;
65461;SDS011;53236;43.666;18.444;2023-05-10T11:23:23;4.72;;;3.17;;
65461;SDS011;53236;43.666;18.444;2023-05-10T11:25:54;4.82;;;3.10;;
65461;SDS011;53236;43.666;18.444;2023-05-10T11:28:20;3.80;;;2.70;;
65461;SDS011;53236;43.666;18.444;2023-05-10T11:30:46;5.30;;;3.28;;
65461;SDS011;53236;43.666;18.444;2023-05-10T11:33:18;9.85;;;3.63;;
65461;SDS011;53236;43.666;18.444;2023-05-10T11:35:45;5.78;;;3.55;;
65461;SDS011;53236;43.666;18.444;2023-05-10T11:38:12;4.63;;;3.25;;
65461;SDS011;53236;43.666;18.444;2023-05-10T11:40:39;5.82;;;3.50;;
65461;SDS011;53236;43.666;18.444;2023-05-10T11:43:06;5.93;;;3.50;;
65461;SDS011;53236;43.666;18.444;2023-05-10T11:45:33;5.43;;;3.58;;
65461;SDS011;53236;43.666;18.444;2023-05-10T11:48:00;7.85;;;4.47;;
65461;SDS011;53236;43.666;18.444;2023-05-10T11:50:26;4.10;;;2.95;;
65461;SDS011;53236;43.666;18.444;2023-05-10T11:52:53;4.88;;;3.28;;
65461;SDS011;53236;43.666;18.444;2023-05-10T11:55:20;5.97;;;3.92;;
65461;SDS011;53236;43.666;18.444;2023-05-10T11:57:46;5.25;;;3.80;;
65461;SDS011;53236;43.666;18.444;2023-05-10T12:00:12;4.65;;;3.55;;
65461;SDS011;53236;43.666;18.444;2023-05-10T12:02:39;12.13;;;5.00;;
65461;SDS011;53236;43.666;18.444;2023-05-10T12:05:05;4.75;;;3.42;;
65461;SDS011;53236;43.666;18.444;2023-05-10T12:07:32;6.70;;;3.78;;
65461;SDS011;53236;43.666;18.444;2023-05-10T12:10:10;4.70;;;2.58;;
65461;SDS011;53236;43.666;18.444;2023-05-10T12:12:43;3.95;;;2.80;;
65461;SDS011;53236;43.666;18.444;2023-05-10T12:15:11;4.35;;;2.40;;
65461;SDS011;53236;43.666;18.444;2023-05-10T12:17:40;5.05;;;2.97;;
65461;SDS011;53236;43.666;18.444;2023-05-10T12:20:41;3.95;;;2.70;;
65461;SDS011;53236;43.666;18.444;2023-05-10T12:23:00;4.65;;;2.90;;
65461;SDS011;53236;43.666;18.444;2023-05-10T12:25:32;4.78;;;3.00;;
65461;SDS011;53236;43.666;18.444;2023-05-10T12:27:59;6.47;;;2.60;;
65461;SDS011;53236;43.666;18.444;2023-05-10T12:30:28;4.53;;;2.78;;
65461;SDS011;53236;43.666;18.444;2023-05-10T12:32:59;7.38;;;3.60;;
65461;SDS011;53236;43.666;18.444;2023-05-10T12:35:46;4.25;;;2.65;;
65461;SDS011;53236;43.666;18.444;2023-05-10T12:38:27;4.15;;;3.17;;
65461;SDS011;53236;43.666;18.444;2023-05-10T12:41:01;5.97;;;3.42;;
65461;SDS011;53236;43.666;18.444;2023-05-10T12:43:31;4.25;;;3.17;;
65461;SDS011;53236;43.666;18.444;2023-05-10T12:45:57;6.10;;;2.83;;
65461;SDS011;53236;43.666;18.444;2023-05-10T12:48:24;5.38;;;3.53;;
65461;SDS011;53236;43.666;18.444;2023-05-10T12:50:50;5.80;;;3.17;;
65461;SDS011;53236;43.666;18.444;2023-05-10T12:53:15;6.00;;;3.17;;
65461;SDS011;53236;43.666;18.444;2023-05-10T12:55:42;5.60;;;3.30;;
65461;SDS011;53236;43.666;18.444;2023-05-10T12:58:08;4.82;;;3.53;;
65461;SDS011;53236;43.666;18.444;2023-05-10T13:00:34;5.53;;;3.22;;
65461;SDS011;53236;43.666;18.444;2023-05-10T13:03:00;3.28;;;2.75;;
65461;SDS011;53236;43.666;18.444;2023-05-10T13:05:26;4.18;;;2.55;;
65461;SDS011;53236;43.666;18.444;2023-05-10T13:07:51;4.20;;;2.70;;
65461;SDS011;53236;43.666;18.444;2023-05-10T13:10:17;4.20;;;2.72;;
65461;SDS011;53236;43.666;18.444;2023-05-10T13:12:43;4.65;;;2.63;;
65461;SDS011;53236;43.666;18.444;2023-05-10T13:15:08;3.05;;;2.15;;
65461;SDS011;53236;43.666;18.444;2023-05-10T13:17:34;5.95;;;2.78;;
65461;SDS011;53236;43.666;18.444;2023-05-10T13:20:00;3.63;;;2.60;;
65461;SDS011;53236;43.666;18.444;2023-05-10T13:22:26;7.05;;;2.63;;
65461;SDS011;53236;43.666;18.444;2023-05-10T13:24:52;4.53;;;2.80;;
65461;SDS011;53236;43.666;18.444;2023-05-10T13:27:18;4.43;;;2.80;;
65461;SDS011;53236;43.666;18.444;2023-05-10T13:29:44;6.28;;;3.47;;
65461;SDS011;53236;43.666;18.444;2023-05-10T13:32:09;4.05;;;2.60;;
65461;SDS011;53236;43.666;18.444;2023-05-10T13:34:35;4.53;;;2.25;;
65461;SDS011;53236;43.666;18.444;2023-05-10T13:37:01;4.68;;;2.53;;
65461;SDS011;53236;43.666;18.444;2023-05-10T13:39:27;3.20;;;2.40;;
65461;SDS011;53236;43.666;18.444;2023-05-10T13:41:55;4.55;;;2.50;;
65461;SDS011;53236;43.666;18.444;2023-05-10T13:44:21;3.20;;;2.33;;
65461;SDS011;53236;43.666;18.444;2023-05-10T13:46:47;4.00;;;2.65;;
65461;SDS011;53236;43.666;18.444;2023-05-10T13:49:13;3.72;;;2.65;;
65461;SDS011;53236;43.666;18.444;2023-05-10T13:51:38;4.55;;;3.35;;
65461;SDS011;53236;43.666;18.444;2023-05-10T13:54:04;4.28;;;2.67;;
65461;SDS011;53236;43.666;18.444;2023-05-10T13:56:30;5.07;;;3.58;;
65461;SDS011;53236;43.666;18.444;2023-05-10T13:58:56;4.43;;;3.42;;
65461;SDS011;53236;43.666;18.444;2023-05-10T14:01:23;5.07;;;3.53;;
65461;SDS011;53236;43.666;18.444;2023-05-10T14:03:49;6.30;;;3.10;;
65461;SDS011;53236;43.666;18.444;2023-05-10T14:06:14;4.13;;;3.10;;
65461;SDS011;53236;43.666;18.444;2023-05-10T14:08:40;4.72;;;3.33;;
65461;SDS011;53236;43.666;18.444;2023-05-10T14:11:06;5.00;;;3.50;;
65461;SDS011;53236;43.666;18.444;2023-05-10T14:13:32;6.32;;;3.90;;
65461;SDS011;53236;43.666;18.444;2023-05-10T14:15:58;5.25;;;3.47;;
65461;SDS011;53236;43.666;18.444;2023-05-10T14:18:26;5.88;;;4.15;;
65461;SDS011;53236;43.666;18.444;2023-05-10T14:20:52;5.47;;;3.67;;
65461;SDS011;53236;43.666;18.444;2023-05-10T14:23:18;4.15;;;3.20;;
65461;SDS011;53236;43.666;18.444;2023-05-10T14:25:48;7.05;;;4.35;;
65461;SDS011;53236;43.666;18.444;2023-05-10T14:28:15;9.18;;;4.57;;
65461;SDS011;53236;43.666;18.444;2023-05-10T14:30:42;7.47;;;4.22;;
65461;SDS011;53236;43.666;18.444;2023-05-10T14:33:10;5.47;;;3.67;;
65461;SDS011;53236;43.666;18.444;2023-05-10T14:35:35;8.90;;;3.63;;
65461;SDS011;53236;43.666;18.444;2023-05-10T14:38:02;5.28;;;3.58;;
65461;SDS011;53236;43.666;18.444;2023-05-10T14:40:28;6.20;;;4.20;;
65461;SDS011;53236;43.666;18.444;2023-05-10T14:42:56;7.95;;;4.35;;
65461;SDS011;53236;43.666;18.444;2023-05-10T14:45:22;9.00;;;5.55;;
65461;SDS011;53236;43.666;18.444;2023-05-10T14:47:48;7.03;;;5.13;;
65461;SDS011;53236;43.666;18.444;2023-05-10T14:50:15;5.80;;;4.80;;
65461;SDS011;53236;43.666;18.444;2023-05-10T14:52:42;8.30;;;5.53;;
65461;SDS011;53236;43.666;18.444;2023-05-10T14:55:08;8.20;;;5.28;;
65461;SDS011;53236;43.666;18.444;2023-05-10T14:57:34;7.22;;;5.45;;
65461;SDS011;53236;43.666;18.444;2023-05-10T15:00:00;7.00;;;4.77;;
65461;SDS011;53236;43.666;18.444;2023-05-10T15:02:26;6.38;;;4.95;;
65461;SDS011;53236;43.666;18.444;2023-05-10T15:04:53;7.20;;;5.43;;
65461;SDS011;53236;43.666;18.444;2023-05-10T15:07:19;8.30;;;5.80;;
65461;SDS011;53236;43.666;18.444;2023-05-10T15:09:45;9.60;;;5.33;;
65461;SDS011;53236;43.666;18.444;2023-05-10T15:12:10;10.63;;;5.43;;
65461;SDS011;53236;43.666;18.444;2023-05-10T15:14:36;6.90;;;5.27;;
65461;SDS011;53236;43.666;18.444;2023-05-10T15:17:02;6.97;;;5.33;;